Whitecourt, Canada
Current Conditions -  °F | °C
As of 8:00 PM on Wednesday 26 Nov 2014 (Local Time) from CYZU Reporting Station
Overcast Overcast  
Wind Chill: 12°   Ceiling: 12000
Heat Index: 12°   Visibility: 15mi
Dew Point: 10°   Wind: 0mph
Humidity: 92%   Direction: NA
Pressure: 30.07"   Gusts: NA
Location:  54.13°N, 115.67°W
Report Text: CYZU 270300Z 00000KT 15SM FEW060 BKN120 OVC210 M11/M12 A3007 RMK SC1AS6CI1 SLP240
Loading
Personal Weather Stations






























Interactive Weather Map New forecast layout! Learn more

10-Day Weather Forecast

Advertisements
Track Severe Weather on mobile